createdAt,value
2023-05-14T00:02:35.500Z,115.65
2023-05-14T00:05:11.286Z,116.93
2023-05-14T00:07:41.618Z,123.07
2023-05-14T00:10:09.260Z,131.48
2023-05-14T00:12:47.565Z,128.43
2023-05-14T00:15:19.672Z,133.80
2023-05-14T00:17:55.393Z,126.78
2023-05-14T00:20:28.107Z,131.85
2023-05-14T00:25:40.426Z,131.02
2023-05-14T00:28:22.551Z,138.60
2023-05-14T00:30:49.581Z,140.68
2023-05-14T00:33:18.125Z,132.82
2023-05-14T00:35:46.408Z,117.45
2023-05-14T00:38:17.159Z,150.52
2023-05-14T00:40:45.907Z,148.88
2023-05-14T00:43:13.035Z,135.48
2023-05-14T00:45:40.725Z,144.90
2023-05-14T00:48:07.720Z,139.45
2023-05-14T00:50:34.963Z,136.27
2023-05-14T00:53:04.970Z,139.75
2023-05-14T00:55:32.987Z,153.45
2023-05-14T00:58:00.427Z,141.25
2023-05-14T01:00:27.412Z,135.57
2023-05-14T01:02:54.524Z,143.77
2023-05-14T01:05:25.005Z,153.38
2023-05-14T01:08:03.272Z,139.43
2023-05-14T01:10:47.303Z,148.60
2023-05-14T01:13:25.614Z,157.32
2023-05-14T01:15:57.294Z,151.40
2023-05-14T01:18:27.214Z,150.10
2023-05-14T01:21:06.485Z,162.13
2023-05-14T01:23:35.314Z,158.05
2023-05-14T01:26:02.715Z,160.88
2023-05-14T01:28:35.156Z,155.77
2023-05-14T01:31:24.439Z,171.77
2023-05-14T01:34:02.367Z,157.35
2023-05-14T01:36:31.413Z,161.48
2023-05-14T01:39:02.273Z,163.32
2023-05-14T01:41:31.385Z,158.85
2023-05-14T01:43:58.964Z,165.45
2023-05-14T01:46:31.257Z,156.77
2023-05-14T01:49:00.056Z,154.38
2023-05-14T01:51:27.532Z,151.27
2023-05-14T01:53:57.122Z,151.20
2023-05-14T01:56:25.888Z,159.52
2023-05-14T01:58:53.047Z,155.82
2023-05-14T02:01:20.434Z,144.77
2023-05-14T02:03:48.064Z,157.25
2023-05-14T02:06:15.614Z,164.90
2023-05-14T02:08:43.369Z,155.63
2023-05-14T02:11:10.398Z,161.57
2023-05-14T02:13:37.716Z,167.82
2023-05-14T02:16:05.527Z,153.25
2023-05-14T02:18:32.755Z,155.82
2023-05-14T02:20:59.782Z,161.95
2023-05-14T02:23:37.809Z,164.57
2023-05-14T02:26:09.836Z,159.30
2023-05-14T02:28:37.166Z,149.50
2023-05-14T02:31:04.093Z,154.45
2023-05-14T02:33:31.222Z,162.27
2023-05-14T02:35:58.956Z,169.88
2023-05-14T02:38:26.790Z,159.77
2023-05-14T02:41:00.888Z,160.48
2023-05-14T02:43:31.014Z,150.52
2023-05-14T02:46:01.207Z,151.60
2023-05-14T02:48:28.603Z,143.13
2023-05-14T02:51:01.065Z,147.20
2023-05-14T02:53:34.470Z,156.68
2023-05-14T02:59:05.391Z,139.85
2023-05-14T03:01:41.040Z,143.70
2023-05-14T03:04:10.336Z,146.27
2023-05-14T03:06:37.406Z,148.40
2023-05-14T03:09:04.334Z,152.95
2023-05-14T03:11:31.369Z,153.98
2023-05-14T03:13:58.384Z,143.68
2023-05-14T03:16:26.374Z,152.60
2023-05-14T03:18:53.384Z,151.68
2023-05-14T03:21:20.503Z,148.55
2023-05-14T03:23:49.135Z,150.63
2023-05-14T03:26:21.685Z,140.18
2023-05-14T03:28:50.647Z,147.63
2023-05-14T03:31:17.722Z,146.63
2023-05-14T03:33:45.629Z,144.02
2023-05-14T03:36:13.190Z,139.15
2023-05-14T03:38:42.574Z,150.57
2023-05-14T03:41:11.423Z,148.43
2023-05-14T03:43:39.701Z,142.40
2023-05-14T03:46:09.642Z,147.70
2023-05-14T03:48:36.954Z,133.75
2023-05-14T03:51:08.852Z,144.45
2023-05-14T03:53:36.594Z,140.23
2023-05-14T03:56:04.547Z,131.65
2023-05-14T03:58:31.571Z,142.15
2023-05-14T04:01:00.944Z,142.95
2023-05-14T04:03:28.384Z,135.23
2023-05-14T04:05:57.304Z,129.48
2023-05-14T04:08:26.668Z,136.40
2023-05-14T04:11:05.126Z,137.23
2023-05-14T04:13:33.138Z,139.32
2023-05-14T04:16:01.234Z,139.05
2023-05-14T04:18:28.206Z,154.18
2023-05-14T04:20:55.150Z,138.10
2023-05-14T04:23:32.739Z,137.75
2023-05-14T04:26:00.221Z,138.15
2023-05-14T04:28:27.168Z,138.10
2023-05-14T04:30:54.168Z,137.60
2023-05-14T04:33:22.623Z,138.05
2023-05-14T04:35:49.580Z,146.02
2023-05-14T04:38:16.634Z,135.30
2023-05-14T04:40:43.696Z,136.70
2023-05-14T04:43:10.825Z,132.50
2023-05-14T04:45:38.877Z,133.20
2023-05-14T04:48:07.800Z,136.98
2023-05-14T04:50:35.950Z,129.32
2023-05-14T04:53:07.775Z,124.28
2023-05-14T04:55:35.101Z,129.75
2023-05-14T04:58:03.705Z,121.05
2023-05-14T05:00:32.064Z,125.65
2023-05-14T05:02:59.103Z,120.35
2023-05-14T05:05:26.738Z,125.45
2023-05-14T05:07:54.873Z,133.43
2023-05-14T05:10:22.039Z,116.45
2023-05-14T05:12:49.019Z,138.77
2023-05-14T05:15:16.240Z,130.70
2023-05-14T05:17:43.661Z,133.38
2023-05-14T05:20:13.874Z,129.18
2023-05-14T05:22:40.956Z,136.65
2023-05-14T05:25:09.079Z,138.98
2023-05-14T05:27:42.922Z,128.27
2023-05-14T05:30:10.676Z,130.45
2023-05-14T05:32:39.040Z,128.65
2023-05-14T05:35:07.915Z,139.00
2023-05-14T05:37:36.238Z,128.27
2023-05-14T05:40:06.305Z,120.63
2023-05-14T05:42:36.879Z,126.65
2023-05-14T05:45:04.182Z,121.68
2023-05-14T05:47:38.664Z,116.18
2023-05-14T05:50:07.573Z,122.38
2023-05-14T05:52:34.798Z,119.00
2023-05-14T05:55:01.811Z,116.07
2023-05-14T05:57:31.825Z,120.75
2023-05-14T06:00:01.042Z,122.15
2023-05-14T06:02:28.096Z,122.25
2023-05-14T06:04:55.165Z,120.22
2023-05-14T06:07:22.226Z,125.90
2023-05-14T06:09:49.116Z,113.85
2023-05-14T06:12:16.188Z,119.78
2023-05-14T06:14:44.478Z,119.35
2023-05-14T06:17:21.525Z,115.85
2023-05-14T06:20:42.495Z,127.75
2023-05-14T06:23:15.009Z,118.28
2023-05-14T06:25:41.999Z,118.18
2023-05-14T06:28:36.904Z,116.95
2023-05-14T06:31:07.267Z,120.93
2023-05-14T06:34:02.140Z,114.07
2023-05-14T06:36:33.204Z,106.97
2023-05-14T06:39:06.313Z,113.30
2023-05-14T06:41:36.397Z,100.75
2023-05-14T06:44:32.657Z,102.15
2023-05-14T06:47:03.277Z,94.85
2023-05-14T06:49:35.119Z,91.50
2023-05-14T06:52:05.462Z,88.25
2023-05-14T06:54:33.809Z,84.72
2023-05-14T06:57:02.379Z,88.03
2023-05-14T06:59:34.173Z,97.63
2023-05-14T07:02:07.512Z,105.28
2023-05-14T07:04:38.614Z,97.88
2023-05-14T07:07:15.397Z,98.50
2023-05-14T07:09:43.845Z,103.22
2023-05-14T07:12:21.459Z,105.25
2023-05-14T07:14:51.697Z,113.43
2023-05-14T07:17:18.933Z,104.65
2023-05-14T07:19:47.260Z,112.47
2023-05-14T07:22:14.244Z,115.70
2023-05-14T07:24:42.664Z,146.07
2023-05-14T07:27:09.649Z,107.70
2023-05-14T07:29:39.869Z,106.70
2023-05-14T07:32:08.713Z,114.68
2023-05-14T07:34:35.792Z,108.25
2023-05-14T07:37:04.405Z,119.20
2023-05-14T07:39:32.777Z,98.40
2023-05-14T07:42:01.362Z,107.70
2023-05-14T07:44:28.377Z,106.25
2023-05-14T07:46:56.355Z,104.47
2023-05-14T07:49:25.407Z,103.07
2023-05-14T07:51:56.799Z,102.93
2023-05-14T07:54:31.430Z,100.25
2023-05-14T07:57:08.456Z,99.70
2023-05-14T08:00:36.276Z,108.15
2023-05-14T08:04:02.350Z,95.65
2023-05-14T08:06:58.246Z,84.63
2023-05-14T08:09:53.287Z,100.30
2023-05-14T08:12:25.526Z,93.35
2023-05-14T08:14:58.285Z,100.27
2023-05-14T08:17:30.215Z,88.28
2023-05-14T08:19:57.447Z,104.70
2023-05-14T08:22:24.458Z,120.82
2023-05-14T08:27:38.802Z,88.20
2023-05-14T08:30:08.831Z,84.88
2023-05-14T08:32:36.032Z,74.80
2023-05-14T08:35:03.071Z,71.93
2023-05-14T08:37:30.072Z,78.78
2023-05-14T08:39:58.995Z,77.82
2023-05-14T08:42:28.613Z,81.15
2023-05-14T08:45:02.292Z,73.25
2023-05-14T08:47:32.661Z,70.20
2023-05-14T08:50:04.900Z,66.85
2023-05-14T08:52:33.829Z,63.42
2023-05-14T08:55:05.660Z,77.82
2023-05-14T08:57:33.831Z,72.72
2023-05-14T09:00:02.314Z,60.15
2023-05-14T09:02:38.698Z,64.68
2023-05-14T09:05:07.519Z,57.75
2023-05-14T09:07:35.762Z,65.22
2023-05-14T09:10:04.009Z,65.55
2023-05-14T09:12:33.149Z,61.20
2023-05-14T09:15:00.318Z,67.43
2023-05-14T09:17:27.979Z,63.67
2023-05-14T09:19:55.971Z,60.08
2023-05-14T09:22:23.044Z,64.28
2023-05-14T09:25:03.643Z,57.25
2023-05-14T09:27:31.988Z,59.67
2023-05-14T09:30:13.352Z,61.67
2023-05-14T09:32:50.233Z,58.33
2023-05-14T09:35:20.659Z,58.85
2023-05-14T09:37:55.529Z,54.95
2023-05-14T09:40:24.800Z,60.78
2023-05-14T09:42:58.278Z,54.35
2023-05-14T09:45:25.553Z,52.58
2023-05-14T09:47:53.698Z,49.67
2023-05-14T09:50:21.858Z,54.10
2023-05-14T09:52:49.892Z,54.17
2023-05-14T09:55:17.096Z,48.03
2023-05-14T09:57:44.124Z,51.97
2023-05-14T10:00:12.744Z,50.72
2023-05-14T10:02:42.225Z,50.53
2023-05-14T10:05:10.392Z,51.30
2023-05-14T10:07:42.715Z,49.92
2023-05-14T10:10:16.758Z,48.72
2023-05-14T10:13:04.252Z,48.17
2023-05-14T10:15:41.635Z,49.38
2023-05-14T10:18:17.108Z,45.20
2023-05-14T10:20:49.292Z,46.88
2023-05-14T10:23:18.341Z,48.53
2023-05-14T10:25:49.015Z,49.20
2023-05-14T10:28:16.316Z,45.10
2023-05-14T10:30:46.981Z,47.00
2023-05-14T10:33:17.634Z,46.15
2023-05-14T10:36:13.269Z,46.30
2023-05-14T10:38:42.415Z,46.53
2023-05-14T10:41:21.571Z,45.45
2023-05-14T10:43:48.939Z,43.55
2023-05-14T10:46:16.315Z,46.70
2023-05-14T10:48:44.229Z,45.78
2023-05-14T10:51:15.166Z,45.38
2023-05-14T10:53:43.236Z,43.83
2023-05-14T10:56:14.367Z,46.95
2023-05-14T10:58:46.137Z,46.38
2023-05-14T11:01:17.193Z,115.17
2023-05-14T11:03:48.834Z,40.75
2023-05-14T11:06:16.990Z,44.43
2023-05-14T11:08:49.834Z,38.67
2023-05-14T11:11:19.754Z,41.08
2023-05-14T11:13:51.987Z,41.70
2023-05-14T11:16:24.201Z,41.50
2023-05-14T11:19:06.094Z,42.43
2023-05-14T11:21:33.760Z,40.17
2023-05-14T11:24:01.638Z,38.45
2023-05-14T11:26:28.741Z,35.88
2023-05-14T11:28:58.367Z,36.63
2023-05-14T11:31:31.698Z,37.90
2023-05-14T11:33:59.072Z,41.22
2023-05-14T11:36:26.116Z,37.25
2023-05-14T11:38:55.155Z,34.22
2023-05-14T11:41:23.620Z,39.13
2023-05-14T11:43:51.924Z,35.78
2023-05-14T11:46:20.471Z,38.88
2023-05-14T11:48:47.795Z,34.60
2023-05-14T11:51:17.106Z,34.28
2023-05-14T11:53:47.434Z,36.22
2023-05-14T11:56:15.626Z,35.80
2023-05-14T11:59:13.244Z,36.08
2023-05-14T12:01:40.609Z,30.92
2023-05-14T12:04:07.793Z,30.17
2023-05-14T12:06:34.872Z,29.88
2023-05-14T12:09:01.974Z,29.10
2023-05-14T12:11:36.170Z,35.90
2023-05-14T12:14:12.185Z,37.08
2023-05-14T12:16:41.597Z,34.63
2023-05-14T12:19:26.265Z,30.13
2023-05-14T12:21:54.353Z,33.70
2023-05-14T12:24:23.230Z,32.72
2023-05-14T12:26:51.624Z,32.22
2023-05-14T12:29:22.248Z,27.88
2023-05-14T12:31:50.863Z,29.58
2023-05-14T12:34:17.941Z,33.55
2023-05-14T12:36:45.200Z,27.77
2023-05-14T12:39:13.084Z,29.63
2023-05-14T12:41:40.129Z,31.20
2023-05-14T12:44:07.097Z,30.13
2023-05-14T12:46:34.490Z,31.10
2023-05-14T12:49:02.492Z,28.20
2023-05-14T12:51:29.963Z,32.65
2023-05-14T12:53:57.302Z,29.85
2023-05-14T12:56:28.333Z,29.67
2023-05-14T12:58:57.100Z,27.27
2023-05-14T13:01:25.064Z,33.55
2023-05-14T13:03:52.125Z,27.98
2023-05-14T13:06:28.943Z,28.08
2023-05-14T13:08:56.781Z,23.90
2023-05-14T13:11:24.224Z,21.77
2023-05-14T13:13:52.347Z,24.67
2023-05-14T13:16:19.608Z,24.17
2023-05-14T13:18:46.610Z,28.88
2023-05-14T13:21:13.706Z,25.88
2023-05-14T13:23:43.311Z,26.38
2023-05-14T13:26:10.614Z,29.30
2023-05-14T13:28:40.565Z,26.52
2023-05-14T13:31:16.734Z,27.15
2023-05-14T13:33:45.691Z,25.25
2023-05-14T13:36:14.949Z,23.33
2023-05-14T13:38:44.845Z,27.15
2023-05-14T13:41:20.928Z,22.30
2023-05-14T13:43:53.833Z,22.83
2023-05-14T13:46:21.718Z,21.40
2023-05-14T13:48:50.781Z,24.67
2023-05-14T13:51:21.102Z,21.30
2023-05-14T13:53:49.330Z,25.67
2023-05-14T13:56:18.692Z,20.95
2023-05-14T13:58:48.785Z,20.17
2023-05-14T14:01:16.083Z,22.42
2023-05-14T14:03:43.623Z,21.33
2023-05-14T14:06:11.063Z,23.95
2023-05-14T14:08:39.436Z,18.77
2023-05-14T14:11:08.438Z,18.95
2023-05-14T14:13:46.577Z,18.70
2023-05-14T14:16:14.004Z,24.30
2023-05-14T14:18:43.490Z,23.45
2023-05-14T14:21:10.986Z,21.02
2023-05-14T14:23:39.156Z,18.23
2023-05-14T14:26:10.191Z,20.67
2023-05-14T14:28:37.367Z,17.83
2023-05-14T14:31:06.752Z,19.73
2023-05-14T14:33:36.693Z,24.95
2023-05-14T14:36:04.990Z,17.30
2023-05-14T14:38:31.883Z,18.10
2023-05-14T14:40:58.920Z,16.33
2023-05-14T14:43:36.404Z,18.83
2023-05-14T14:46:05.755Z,18.90
2023-05-14T14:48:38.300Z,21.63
2023-05-14T14:53:54.329Z,19.23
2023-05-14T14:56:22.582Z,20.20
2023-05-14T14:58:57.286Z,17.25
2023-05-14T15:04:08.651Z,19.15
2023-05-14T15:06:37.283Z,19.75
2023-05-14T15:09:08.244Z,18.10
2023-05-14T15:11:37.549Z,20.88
2023-05-14T15:14:19.457Z,17.95
2023-05-14T15:16:56.202Z,17.52
2023-05-14T15:19:31.412Z,18.33
2023-05-14T15:22:13.596Z,18.48
2023-05-14T15:36:06.850Z,19.27
2023-05-14T15:38:38.944Z,20.38
2023-05-14T15:41:25.384Z,20.08
2023-05-14T15:46:34.620Z,27.10
2023-05-14T15:49:07.990Z,22.40
2023-05-14T15:51:38.918Z,30.88
2023-05-14T15:54:36.437Z,28.38
2023-05-14T15:57:20.013Z,26.98
2023-05-14T15:59:48.500Z,30.85
2023-05-14T16:02:16.119Z,26.77
2023-05-14T16:04:46.368Z,27.30
2023-05-14T16:07:13.932Z,38.67
2023-05-14T16:09:40.912Z,30.08
2023-05-14T16:12:10.078Z,29.95
2023-05-14T16:14:40.021Z,30.17
2023-05-14T16:17:09.210Z,28.90
2023-05-14T16:19:39.919Z,27.23
2023-05-14T16:22:07.921Z,33.42
2023-05-14T16:24:36.229Z,32.90
2023-05-14T16:27:03.906Z,24.95
2023-05-14T16:29:31.241Z,32.20
2023-05-14T16:31:59.285Z,33.58
2023-05-14T16:34:26.125Z,34.42
2023-05-14T16:36:53.421Z,24.95
2023-05-14T16:39:20.576Z,27.23
2023-05-14T16:41:48.561Z,32.08
2023-05-14T16:44:15.911Z,29.02
2023-05-14T16:46:42.854Z,34.30
2023-05-14T16:49:09.812Z,30.48
2023-05-14T16:51:42.126Z,32.17
2023-05-14T16:54:11.252Z,31.67
2023-05-14T16:56:41.060Z,30.40
2023-05-14T16:59:09.326Z,31.80
2023-05-14T17:01:36.842Z,34.17
2023-05-14T17:04:03.901Z,31.55
2023-05-14T17:06:31.087Z,27.88
2023-05-14T17:08:58.294Z,29.13
2023-05-14T17:11:27.377Z,31.50
2023-05-14T17:13:55.390Z,30.40
2023-05-14T17:16:22.527Z,24.77
2023-05-14T17:18:50.902Z,27.67
2023-05-14T17:21:22.743Z,29.50
2023-05-14T17:23:51.725Z,28.80
2023-05-14T17:26:19.886Z,27.70
2023-05-14T17:28:46.866Z,28.00
2023-05-14T17:31:14.136Z,28.73
2023-05-14T17:36:28.669Z,28.88
2023-05-14T17:42:01.580Z,34.72
2023-05-14T17:44:28.865Z,34.72
2023-05-14T17:46:56.196Z,30.77
2023-05-14T17:49:23.308Z,29.58
2023-05-14T17:51:51.352Z,34.70
2023-05-14T17:54:18.402Z,28.38
2023-05-14T17:56:48.127Z,25.80
2023-05-14T17:59:17.905Z,28.15
2023-05-14T18:01:44.863Z,23.67
2023-05-14T18:04:13.504Z,27.98
2023-05-14T18:06:40.678Z,22.58
2023-05-14T18:09:07.681Z,24.13
2023-05-14T18:11:34.715Z,71.90
2023-05-14T18:14:01.584Z,22.15
2023-05-14T18:16:29.429Z,28.05
2023-05-14T18:18:57.608Z,23.23
2023-05-14T18:21:24.624Z,24.48
2023-05-14T18:23:52.645Z,28.63
2023-05-14T18:26:22.077Z,26.10
2023-05-14T18:28:51.358Z,27.38
2023-05-14T18:31:19.417Z,24.25
2023-05-14T18:33:52.559Z,29.67
2023-05-14T18:36:24.355Z,23.98
2023-05-14T18:39:00.074Z,32.50
2023-05-14T18:41:33.461Z,52.97
2023-05-14T18:44:02.501Z,34.35
2023-05-14T18:46:31.497Z,31.67
2023-05-14T18:48:59.452Z,36.17
2023-05-14T18:51:27.469Z,38.40
2023-05-14T18:53:54.734Z,30.65
2023-05-14T18:56:24.221Z,30.20
2023-05-14T18:58:52.707Z,30.73
2023-05-14T19:01:21.128Z,28.67
2023-05-14T19:03:48.266Z,26.83
2023-05-14T19:06:15.286Z,60.20
2023-05-14T19:08:43.328Z,31.02
2023-05-14T19:11:12.337Z,23.80
2023-05-14T19:13:39.492Z,18.13
2023-05-14T19:16:07.501Z,24.77
2023-05-14T19:18:34.626Z,21.40
2023-05-14T19:21:05.115Z,23.30
2023-05-14T19:23:32.744Z,18.75
2023-05-14T19:26:00.135Z,20.80
2023-05-14T19:28:27.113Z,19.90
2023-05-14T19:30:57.527Z,22.73
2023-05-14T19:33:28.232Z,297.13
2023-05-14T19:35:56.814Z,28.08
2023-05-14T19:38:24.802Z,22.38
2023-05-14T19:40:56.734Z,20.15
2023-05-14T19:43:26.357Z,23.48
2023-05-14T19:45:53.339Z,24.70
2023-05-14T19:48:23.419Z,23.10
2023-05-14T19:50:52.266Z,30.27
2023-05-14T19:53:19.166Z,22.30
2023-05-14T19:55:46.598Z,25.83
2023-05-14T19:58:15.552Z,27.50
2023-05-14T20:00:43.096Z,22.05
2023-05-14T20:03:10.499Z,23.33
2023-05-14T20:05:37.783Z,24.00
2023-05-14T20:08:08.082Z,22.65
2023-05-14T20:10:36.155Z,24.73
2023-05-14T20:13:03.392Z,21.58
2023-05-14T20:15:34.549Z,19.92
2023-05-14T20:18:02.632Z,25.52
2023-05-14T20:20:33.185Z,26.02
2023-05-14T20:23:01.120Z,36.78
2023-05-14T20:25:28.720Z,21.95
2023-05-14T20:27:56.876Z,29.77
2023-05-14T20:30:24.234Z,27.02
2023-05-14T20:32:51.697Z,34.17
2023-05-14T20:35:18.846Z,34.05
2023-05-14T20:37:45.837Z,36.30
2023-05-14T20:40:14.120Z,36.92
2023-05-14T20:42:42.225Z,42.72
2023-05-14T20:45:10.391Z,40.85
2023-05-14T20:47:37.534Z,41.28
2023-05-14T20:50:04.913Z,40.88
2023-05-14T20:52:31.858Z,42.53
2023-05-14T20:55:01.854Z,45.47
2023-05-14T20:57:29.281Z,41.78
2023-05-14T20:59:57.265Z,42.53
2023-05-14T21:02:24.355Z,48.00
2023-05-14T21:04:51.574Z,42.92
2023-05-14T21:07:19.618Z,43.78
2023-05-14T21:09:52.151Z,42.28
2023-05-14T21:14:47.443Z,40.83
2023-05-14T21:17:14.360Z,49.35
2023-05-14T21:19:42.768Z,51.33
2023-05-14T21:22:13.347Z,46.17
2023-05-14T21:24:40.453Z,42.45
2023-05-14T21:27:07.583Z,47.38
2023-05-14T21:29:36.859Z,49.05
2023-05-14T21:32:04.299Z,52.10
2023-05-14T21:34:32.137Z,47.50
2023-05-14T21:36:59.332Z,53.03
2023-05-14T21:39:27.231Z,49.83
2023-05-14T21:41:54.281Z,51.33
2023-05-14T21:44:22.090Z,54.65
2023-05-14T21:46:49.533Z,56.13
2023-05-14T21:49:16.549Z,56.03
2023-05-14T21:51:44.061Z,60.78
2023-05-14T21:54:11.034Z,55.65
2023-05-14T21:56:38.184Z,57.03
2023-05-14T21:59:05.135Z,56.55
2023-05-14T22:01:33.805Z,60.95
2023-05-14T22:04:05.931Z,57.22
2023-05-14T22:06:34.599Z,60.38
2023-05-14T22:09:03.615Z,66.88
2023-05-14T22:11:30.655Z,60.78
2023-05-14T22:14:00.809Z,64.68
2023-05-14T22:16:33.169Z,63.22
2023-05-14T22:19:05.319Z,73.20
2023-05-14T22:21:33.824Z,72.80
2023-05-14T22:24:00.910Z,66.78
2023-05-14T22:26:29.111Z,67.13
2023-05-14T22:28:57.660Z,81.43
2023-05-14T22:31:24.780Z,69.35
2023-05-14T22:33:52.029Z,77.85
2023-05-14T22:36:18.973Z,75.15
2023-05-14T22:38:46.201Z,70.88
2023-05-14T22:41:17.413Z,78.85
2023-05-14T22:43:44.445Z,84.53
2023-05-14T22:48:38.335Z,94.38
2023-05-14T22:51:06.289Z,98.22
2023-05-14T22:53:33.291Z,101.85
2023-05-14T22:56:00.484Z,107.47
2023-05-14T22:58:32.906Z,101.55
2023-05-14T23:00:59.893Z,107.85
2023-05-14T23:03:29.955Z,105.03
2023-05-14T23:05:58.019Z,121.40
2023-05-14T23:08:26.134Z,114.40
2023-05-14T23:10:55.230Z,118.55
2023-05-14T23:13:22.237Z,121.13
2023-05-14T23:15:50.520Z,123.60
2023-05-14T23:18:17.840Z,123.32
2023-05-14T23:20:46.288Z,126.85
2023-05-14T23:23:13.163Z,129.02
2023-05-14T23:25:41.525Z,123.18
2023-05-14T23:28:10.667Z,134.63
2023-05-14T23:30:37.869Z,126.65
2023-05-14T23:33:04.962Z,128.60
2023-05-14T23:35:31.985Z,135.50
2023-05-14T23:38:00.147Z,132.15
2023-05-14T23:40:29.274Z,134.43
2023-05-14T23:42:58.402Z,131.13
2023-05-14T23:45:29.030Z,133.07
2023-05-14T23:47:58.388Z,139.38
2023-05-14T23:50:25.538Z,141.85
2023-05-14T23:52:53.714Z,140.30
2023-05-14T23:55:21.038Z,135.52
2023-05-14T23:57:48.933Z,147.65
